Aérodrome :
LOGIN :

S'inscrire | Disclaimer

   EN    FR    IT 

 










Légende :    VFR   VFR Marginal   IFR   IFR Intensif   IFR Très Intensif
Visi : 
Plafond : 
>= 8 km
>= 3000ft
5 à 8 km
1000 à 3000 ft
1500m à 5 km
500 à 1000 ft
800 à 1500m
200 à 500 ft
< 800m
< 200 ft
Symboles :   Orages  Brouillard  Fortes neiges  Fortes précipitations  Vent > 20 kt
SIGMETs :   Divers  Orages  Givrage  Turbulence  Onde Orograph.  Cendres Volcan.






- Altitude de l'aérodrome : 50 ft
- Code IATA : KOI


EGPA - Kirkwall

DERNIER METAR :
  • 290850Z 28011KT 9999 FEW024 SCT040 05/M01 Q1046

METARs EXPIRÉS :
  • 290820Z 26008KT 9999 FEW024 SCT046 05/M01 Q1046
  • 290750Z 27005KT 9999 FEW022 SCT046 04/M02 Q1046
  • 290720Z 27006KT 9999 FEW022 SCT046 03/M03 Q1046
  • 290650Z 27005KT 9999 FEW022 SCT049 03/M03 Q1046
  • 290620Z AUTO 26004KT 9999 OVC044/// 02/M03 Q1047

TAF TAF EGPA
Valide du 29 à 09h jusqu'au 29 à 18h UTC


290757Z 2909/2918 28009KT 9999 SCT045
PROB30
TEMPO 2912/2918 30018G28KT



MET'MAP, la Météo Aéronautique d'un coup d'oeil ! - Copyright ORBIFLY Décembre 2007 - Disclaimer

ORBIFLY MET'MAP TEAM :

Programmation & Développement : Alexandra Zaïnal
Sur une idée originale de : Baudouin d'Aumeries
Assistance à la programmation : Marc-Olivier Méhu
Soutien technique & logistique : Manuel Goepfert

Contact : metmap@orbifly.com




SOURCES & CREDITS :

   NOAA